createdAt,value
2019-05-21T00:01:28.167Z,13.71
2019-05-21T00:04:01.463Z,13.74
2019-05-21T00:06:35.937Z,13.69
2019-05-21T00:09:09.314Z,13.68
2019-05-21T00:11:42.037Z,13.61
2019-05-21T00:14:14.705Z,13.62
2019-05-21T00:16:47.575Z,13.66
2019-05-21T00:19:20.537Z,13.63
2019-05-21T00:21:54.449Z,13.62
2019-05-21T00:24:27.886Z,13.63
2019-05-21T00:27:00.913Z,13.61
2019-05-21T00:30:10.445Z,13.62
2019-05-21T00:33:20.405Z,13.57
2019-05-21T00:36:31.498Z,13.63
2019-05-21T00:39:40.349Z,13.60
2019-05-21T00:42:17.953Z,13.54
2019-05-21T00:44:51.831Z,13.52
2019-05-21T00:47:24.806Z,13.52
2019-05-21T16:39:25.220Z,14.44
2019-05-21T16:41:59.995Z,14.44
2019-05-21T16:44:34.736Z,14.47
2019-05-21T16:47:07.819Z,14.48
2019-05-21T16:49:44.418Z,14.43
2019-05-21T16:52:17.853Z,14.45
2019-05-21T16:55:04.348Z,14.42
2019-05-21T16:57:36.271Z,14.38
2019-05-21T17:00:16.434Z,14.39
2019-05-21T17:02:57.632Z,14.39
2019-05-21T17:05:34.383Z,14.41
2019-05-21T17:08:15.395Z,14.44
2019-05-21T17:10:54.191Z,14.50
2019-05-21T17:13:27.518Z,14.52
2019-05-21T17:16:12.282Z,14.60
2019-05-21T17:18:45.103Z,14.63
2019-05-21T17:21:25.513Z,14.59
2019-05-21T17:23:58.662Z,14.66
2019-05-21T17:26:33.553Z,14.64
2019-05-21T17:29:07.037Z,14.66
2019-05-21T17:31:44.460Z,14.61
2019-05-21T17:34:17.631Z,14.53
2019-05-21T17:36:58.411Z,14.54
2019-05-21T17:39:33.927Z,14.42
2019-05-21T17:42:15.668Z,14.36
2019-05-21T17:44:47.232Z,14.35
2019-05-21T17:47:20.594Z,14.29
2019-05-21T17:49:57.224Z,14.30
2019-05-21T17:52:35.421Z,14.35
2019-05-21T17:55:09.958Z,14.23
2019-05-21T17:57:46.646Z,14.18
2019-05-21T18:00:47.811Z,14.18
2019-05-21T18:03:24.695Z,14.10
2019-05-21T18:05:58.206Z,14.07
2019-05-21T18:08:33.315Z,13.99
2019-05-21T18:14:06.183Z,13.90
2019-05-21T18:16:43.767Z,13.88
2019-05-21T18:19:22.419Z,13.90
2019-05-21T18:21:55.924Z,13.86
2019-05-21T18:24:30.182Z,13.83
2019-05-21T18:27:03.815Z,13.81
2019-05-21T18:29:37.316Z,13.80
2019-05-21T18:32:10.886Z,13.75
2019-05-21T18:34:44.248Z,13.72
2019-05-21T18:37:18.836Z,13.71
2019-05-21T18:39:55.552Z,13.76
2019-05-21T18:42:33.105Z,13.69
2019-05-21T18:45:07.188Z,13.66
2019-05-21T18:47:44.263Z,13.59
2019-05-21T18:50:34.747Z,13.56
2019-05-21T18:52:56.354Z,13.54
2019-05-21T18:55:33.994Z,13.54
2019-05-21T18:58:54.470Z,13.47
2019-05-21T19:00:46.206Z,13.42
2019-05-21T19:03:28.862Z,13.44
2019-05-21T19:05:58.461Z,13.38
2019-05-21T19:08:33.825Z,13.34
2019-05-21T19:11:07.775Z,13.28
2019-05-21T19:13:43.149Z,13.26
2019-05-21T19:16:16.596Z,13.22
2019-05-21T19:18:53.134Z,13.18
2019-05-21T19:21:27.969Z,13.15
2019-05-21T19:24:02.682Z,13.14
2019-05-21T19:26:36.339Z,13.13
2019-05-21T19:29:10.041Z,13.12
2019-05-21T19:31:43.884Z,13.18
2019-05-21T19:34:17.827Z,13.13
2019-05-21T19:36:55.557Z,13.11
2019-05-21T19:39:31.233Z,13.12
2019-05-21T19:42:06.376Z,13.09
2019-05-21T19:44:40.065Z,13.05
2019-05-21T19:47:13.139Z,13.04
2019-05-21T19:49:46.637Z,12.98
2019-05-21T19:52:20.082Z,12.92
2019-05-21T19:54:53.696Z,12.88
2019-05-21T19:57:27.394Z,12.86
2019-05-21T20:00:00.521Z,12.85
2019-05-21T20:02:34.425Z,12.85
2019-05-21T20:05:09.567Z,12.87
2019-05-21T20:07:43.582Z,12.86
2019-05-21T20:10:17.628Z,12.80
2019-05-21T20:12:51.732Z,12.81
2019-05-21T20:15:25.113Z,12.79
2019-05-21T20:18:06.970Z,12.80
2019-05-21T20:20:34.976Z,12.75
2019-05-21T20:23:10.347Z,12.73
2019-05-21T20:25:56.198Z,12.76
2019-05-21T20:28:20.410Z,12.67
2019-05-21T20:30:55.278Z,12.65
2019-05-21T20:33:30.443Z,12.65
2019-05-21T20:36:03.830Z,12.65
2019-05-21T20:38:37.746Z,12.62
2019-05-21T20:41:11.099Z,12.61
2019-05-21T20:43:58.295Z,12.60
2019-05-21T20:46:22.747Z,12.58
2019-05-21T20:48:56.843Z,12.58
2019-05-21T20:51:31.522Z,12.58
2019-05-21T20:54:05.692Z,12.55
2019-05-21T20:56:40.088Z,12.60
2019-05-21T20:59:14.029Z,12.54
2019-05-21T21:01:48.497Z,12.51
2019-05-21T21:04:22.187Z,12.53
2019-05-21T21:06:55.560Z,12.51
2019-05-21T21:09:29.236Z,12.46
2019-05-21T21:12:05.082Z,12.46
2019-05-21T21:14:38.845Z,12.44
2019-05-21T21:17:13.654Z,12.47
2019-05-21T21:19:47.359Z,12.46
2019-05-21T21:22:20.054Z,12.45
2019-05-21T21:24:52.768Z,12.46
2019-05-21T21:27:26.878Z,12.45
2019-05-21T21:30:00.067Z,12.47
2019-05-21T21:32:34.061Z,12.45
2019-05-21T21:35:09.196Z,12.41
2019-05-21T21:37:43.445Z,12.40
2019-05-21T21:40:17.926Z,12.38
2019-05-21T21:42:51.912Z,12.37
2019-05-21T21:45:25.075Z,12.32
2019-05-21T21:48:00.659Z,12.35
2019-05-21T21:50:35.031Z,12.32
2019-05-21T21:53:09.211Z,12.32
2019-05-21T21:55:43.339Z,12.31
2019-05-21T21:58:16.958Z,12.29
2019-05-21T22:01:34.571Z,12.37
2019-05-21T22:04:10.331Z,12.32
2019-05-21T22:06:45.853Z,12.31
2019-05-21T22:09:30.773Z,12.30
2019-05-21T22:12:05.777Z,12.35
2019-05-21T22:14:50.179Z,12.27
2019-05-21T22:17:17.318Z,12.29
2019-05-21T22:19:50.711Z,12.33
2019-05-21T22:22:24.457Z,12.30
2019-05-21T22:24:57.934Z,12.25
2019-05-21T22:27:30.679Z,12.27
2019-05-21T22:30:05.239Z,12.31
2019-05-21T22:32:39.490Z,12.29
2019-05-21T22:35:12.839Z,12.29
2019-05-21T22:37:45.974Z,12.26
2019-05-21T22:40:20.210Z,12.28
2019-05-21T22:42:53.684Z,12.29
2019-05-21T22:45:27.571Z,12.20
2019-05-21T22:48:01.092Z,12.20
2019-05-21T22:50:35.340Z,12.17
2019-05-21T22:53:08.746Z,12.14
2019-05-21T22:55:41.898Z,12.17
2019-05-21T22:58:14.808Z,12.22
2019-05-21T23:00:49.109Z,12.16
2019-05-21T23:03:22.396Z,12.16
2019-05-21T23:05:55.824Z,12.16
2019-05-21T23:08:28.582Z,12.14
2019-05-21T23:11:01.602Z,12.17
2019-05-21T23:13:34.594Z,12.15
2019-05-21T23:16:09.485Z,12.14
2019-05-21T23:19:01.143Z,12.12
2019-05-21T23:21:45.826Z,12.18
2019-05-21T23:24:23.235Z,12.16
2019-05-21T23:26:57.466Z,12.19
2019-05-21T23:29:31.166Z,12.12
2019-05-21T23:32:05.186Z,12.16
2019-05-21T23:34:39.303Z,12.14
2019-05-21T23:37:19.677Z,12.15
2019-05-21T23:39:54.084Z,12.13
2019-05-21T23:42:29.834Z,12.11
2019-05-21T23:45:04.240Z,12.09
2019-05-21T23:47:38.880Z,12.14
2019-05-21T23:50:13.853Z,12.09
2019-05-21T23:52:47.613Z,12.15
2019-05-21T23:55:20.490Z,12.13
2019-05-21T23:57:53.396Z,12.14
